KBJI

Bemidji Regional Airport

Airport
ICAO code
KBJI
IATA Code
BJI
Summary
ICAO Region
NAM
ICAO Territory
Location

Bemidji, Minnesota

Serving
Bemidji
Elevation
1391 ft
Coordinates
47° 30' 34" N , 94° 55' 59" W
KCC
Airport CFIT
Altimeter Temperature Error Correction
Airport GND
Aircraft Ground De/Anti Icing
Airport RE
Landing on Contaminated Runways
Metar
KBJI 180615Z AUTO 12016G21KT 10SM BKN013 BKN040 OVC080 17/14 A2956 RMK AO2 LTG DSNT N AND S T01650140

Description

Bemidji Regional Airport is a public use airport located 3 nm northwest of the central business district of Bemidji, a city in Beltrami County, Minnesota, USA.

Airport map

Aerial View

SKYbrary Partners:

Safety knowledge contributed by: